Time;durP1;ratioP1;P1;durP2;ratioP2;P2;SDS_P1;SDS_P2;PMS_P1;PMS_P2;Temp;Humidity;BMP_temperature;BMP_pressure;BME280_temperature;BME280_humidity;BME280_pressure;Samples;Min_cycle;Max_cycle;Signal;HPM_P1;HPM_P2
2022/11/14 00:00:16;;;;;;;;;;;4.40;99.90;;;;;;5083721;28;19977;-83
2022/11/14 00:03:04;;;;;;;;;;;4.40;99.90;;;;;;5094530;28;19981;-82
2022/11/14 00:05:50;;;;;;;;;;;4.30;99.90;;;;;;5089190;28;19998;-81
2022/11/14 00:08:35;;;;;;;;;;;4.30;99.90;;;;;;5093831;28;19953;-79
2022/11/14 00:11:20;;;;;;;;;;;4.10;99.90;;;;;;5092996;28;19951;-79
2022/11/14 00:14:06;;;;;;;;;;;4.40;99.90;;;;;;5086764;28;19939;-83
2022/11/14 00:16:52;;;;;;;;;;;4.40;99.90;;;;;;5092233;28;20003;-81
2022/11/14 00:19:37;;;;;;;;;;;4.50;99.90;;;;;;5094539;28;20001;-79
2022/11/14 00:22:23;;;;;;;;;;;4.50;99.90;;;;;;5092695;28;20705;-79
2022/11/14 00:25:09;;;;;;;;;;;4.50;99.90;;;;;;5086550;28;20027;-79
2022/11/14 00:27:56;;;;;;;;;;;4.40;99.90;;;;;;5094154;28;19931;-79
2022/11/14 00:30:45;;;;;;;;;;;4.40;99.90;;;;;;5092734;28;19939;-79
2022/11/14 00:33:32;;;;;;;;;;;4.40;99.90;;;;;;5089769;28;19990;-80
2022/11/14 00:36:17;;;;;;;;;;;4.40;99.90;;;;;;5088409;28;19935;-78
2022/11/14 00:39:03;;;;;;;;;;;4.40;99.90;;;;;;5090385;28;19947;-79
2022/11/14 00:41:48;;;;;;;;;;;4.30;99.90;;;;;;5091775;28;19934;-79
2022/11/14 00:44:33;;;;;;;;;;;4.30;99.90;;;;;;5080752;28;19935;-79
2022/11/14 00:47:19;;;;;;;;;;;4.30;99.90;;;;;;5086893;28;19934;-79
2022/11/14 00:50:06;;;;;;;;;;;4.40;99.90;;;;;;5087312;28;19973;-79
2022/11/14 00:52:51;;;;;;;;;;;4.30;99.90;;;;;;5093993;28;20025;-81
2022/11/14 00:55:37;;;;;;;;;;;4.30;99.90;;;;;;5090682;28;19930;-82
2022/11/14 00:58:22;;;;;;;;;;;4.40;99.90;;;;;;5088699;28;20107;-83
2022/11/14 01:01:08;;;;;;;;;;;4.30;99.90;;;;;;5093450;28;20495;-79
2022/11/14 01:03:53;;;;;;;;;;;4.30;99.90;;;;;;5093169;28;20016;-79
2022/11/14 01:06:40;;;;;;;;;;;4.30;99.90;;;;;;5093693;28;19935;-79
2022/11/14 01:09:25;;;;;;;;;;;4.20;99.90;;;;;;5080759;28;19935;-79
2022/11/14 01:12:10;;;;;;;;;;;4.20;99.90;;;;;;5090787;28;19977;-80
2022/11/14 01:14:55;;;;;;;;;;;4.10;99.90;;;;;;5092561;28;20352;-79
2022/11/14 01:17:40;;;;;;;;;;;4.10;99.90;;;;;;5087821;28;19947;-83
2022/11/14 01:20:25;;;;;;;;;;;4.10;99.90;;;;;;5093336;28;19935;-80
2022/11/14 01:23:13;;;;;;;;;;;4.10;99.90;;;;;;5086015;28;20402;-79
2022/11/14 01:26:01;;;;;;;;;;;4.00;99.90;;;;;;5087941;28;20476;-80
2022/11/14 01:28:46;;;;;;;;;;;4.00;99.90;;;;;;5092976;28;19932;-79
2022/11/14 01:31:31;;;;;;;;;;;4.00;99.90;;;;;;5094481;28;19936;-79
2022/11/14 01:34:16;;;;;;;;;;;4.00;99.90;;;;;;5089613;28;19973;-79
2022/11/14 01:37:02;;;;;;;;;;;3.90;99.90;;;;;;5093629;28;19951;-80
2022/11/14 01:39:48;;;;;;;;;;;3.90;99.90;;;;;;5091764;28;19931;-80
2022/11/14 01:42:33;;;;;;;;;;;3.80;99.90;;;;;;5082961;28;19934;-82
2022/11/14 01:45:37;;;;;;;;;;;2.40;99.90;;;;;;5088555;28;19940;-80
2022/11/14 01:48:25;;;;;;;;;;;3.80;99.90;;;;;;5088835;28;19931;-80
2022/11/14 01:51:17;;;;;;;;;;;3.80;99.90;;;;;;5090455;28;19996;-81
2022/11/14 01:54:03;;;;;;;;;;;3.80;99.90;;;;;;5086303;28;20003;-81
2022/11/14 01:56:52;;;;;;;;;;;3.80;99.90;;;;;;5094669;28;19993;-80
2022/11/14 01:59:38;;;;;;;;;;;3.80;99.90;;;;;;5096574;28;19985;-78
2022/11/14 02:02:24;;;;;;;;;;;3.70;99.90;;;;;;5102013;28;20513;-80
2022/11/14 02:05:11;;;;;;;;;;;3.70;99.90;;;;;;5095872;28;20058;-80
2022/11/14 02:07:56;;;;;;;;;;;3.70;99.90;;;;;;5089948;28;20476;-79
2022/11/14 02:10:41;;;;;;;;;;;3.60;99.90;;;;;;5085346;28;19931;-80
2022/11/14 02:13:28;;;;;;;;;;;3.60;99.90;;;;;;5105281;28;20314;-78
2022/11/14 02:16:13;;;;;;;;;;;3.60;99.90;;;;;;5104193;28;19919;-78
2022/11/14 02:18:59;;;;;;;;;;;3.50;99.90;;;;;;5108317;28;19919;-79
2022/11/14 02:21:46;;;;;;;;;;;3.50;99.90;;;;;;5108627;28;20410;-79
2022/11/14 02:24:31;;;;;;;;;;;3.50;99.90;;;;;;5098154;28;19959;-79
2022/11/14 02:27:16;;;;;;;;;;;3.50;99.90;;;;;;5092457;28;19931;-79
2022/11/14 02:30:05;;;;;;;;;;;3.40;99.90;;;;;;5094111;28;19970;-79
2022/11/14 02:32:52;;;;;;;;;;;3.30;99.90;;;;;;5089946;28;19939;-80
2022/11/14 02:35:37;;;;;;;;;;;3.30;99.90;;;;;;5098651;28;19939;-81
2022/11/14 02:38:24;;;;;;;;;;;1.30;99.90;;;;;;5096132;28;19938;-80
2022/11/14 02:41:10;;;;;;;;;;;3.30;99.90;;;;;;5096483;28;19935;-78
2022/11/14 02:43:55;;;;;;;;;;;3.30;99.90;;;;;;5087835;28;19990;-78
2022/11/14 02:46:40;;;;;;;;;;;3.30;99.90;;;;;;5088546;28;20325;-79
2022/11/14 02:49:25;;;;;;;;;;;3.30;99.90;;;;;;5090824;28;19939;-79
2022/11/14 02:52:10;;;;;;;;;;;3.20;99.90;;;;;;5093396;28;19951;-79
2022/11/14 02:54:57;;;;;;;;;;;3.20;99.90;;;;;;5094180;28;19984;-79
2022/11/14 02:57:42;;;;;;;;;;;3.20;99.90;;;;;;5092774;28;19931;-78
2022/11/14 03:00:27;;;;;;;;;;;3.20;99.90;;;;;;5093395;28;19951;-78
2022/11/14 03:03:12;;;;;;;;;;;3.20;99.90;;;;;;5097881;28;19939;-78
2022/11/14 03:05:58;;;;;;;;;;;3.10;99.90;;;;;;5091757;28;19939;-79
2022/11/14 03:08:43;;;;;;;;;;;3.10;99.90;;;;;;5095861;28;19931;-79
2022/11/14 03:11:30;;;;;;;;;;;3.10;99.90;;;;;;5095917;28;19934;-79
2022/11/14 03:14:16;;;;;;;;;;;3.10;99.90;;;;;;5100659;28;20318;-79
2022/11/14 03:17:01;;;;;;;;;;;3.10;99.90;;;;;;5103021;28;20615;-79
2022/11/14 03:19:46;;;;;;;;;;;3.10;99.90;;;;;;5095811;28;19943;-79
2022/11/14 03:22:32;;;;;;;;;;;5.10;99.90;;;;;;5097075;28;19932;-80
2022/11/14 03:25:17;;;;;;;;;;;3.10;99.90;;;;;;5089388;28;20038;-86
2022/11/14 03:28:04;;;;;;;;;;;3.10;99.90;;;;;;5092794;28;19931;-79
2022/11/14 03:30:49;;;;;;;;;;;3.00;99.90;;;;;;5087353;28;19931;-83
2022/11/14 03:33:35;;;;;;;;;;;3.10;99.90;;;;;;5089314;28;20483;-80
2022/11/14 03:36:20;;;;;;;;;;;3.10;99.90;;;;;;5088253;28;20050;-79
2022/11/14 03:39:05;;;;;;;;;;;3.00;99.90;;;;;;5088938;28;19935;-80
2022/11/14 03:41:52;;;;;;;;;;;3.00;99.90;;;;;;5086966;28;20026;-79
2022/11/14 03:44:38;;;;;;;;;;;3.00;99.90;;;;;;5089869;28;19930;-79
2022/11/14 03:47:24;;;;;;;;;;;2.90;99.90;;;;;;5094912;28;20376;-85
2022/11/14 03:50:09;;;;;;;;;;;2.90;99.90;;;;;;5096626;28;19935;-79
2022/11/14 03:52:54;;;;;;;;;;;2.80;99.90;;;;;;5098478;28;20015;-81
2022/11/14 03:55:39;;;;;;;;;;;2.80;99.90;;;;;;5092058;28;19951;-82
2022/11/14 03:58:25;;;;;;;;;;;2.90;99.90;;;;;;5091233;28;20395;-79
2022/11/14 04:01:11;;;;;;;;;;;2.90;99.90;;;;;;5090025;28;19932;-80
2022/11/14 04:03:57;;;;;;;;;;;2.90;99.90;;;;;;5091227;28;19935;-79
2022/11/14 04:06:42;;;;;;;;;;;2.90;99.90;;;;;;5093515;28;19939;-83
2022/11/14 04:09:28;;;;;;;;;;;2.90;99.90;;;;;;5092356;28;20029;-81
2022/11/14 04:12:13;;;;;;;;;;;2.90;99.90;;;;;;5091993;28;20118;-80
2022/11/14 04:14:59;;;;;;;;;;;2.90;99.90;;;;;;5086070;28;19935;-84
2022/11/14 04:17:45;;;;;;;;;;;3.00;99.90;;;;;;5091054;28;19997;-80
2022/11/14 04:20:31;;;;;;;;;;;2.90;99.90;;;;;;5090980;28;20017;-82
2022/11/14 04:23:16;;;;;;;;;;;3.00;99.90;;;;;;5080495;28;20466;-82
2022/11/14 04:26:01;;;;;;;;;;;3.00;99.90;;;;;;5101241;22;19939;-73
2022/11/14 04:28:46;;;;;;;;;;;3.00;99.90;;;;;;5088033;28;19934;-73
2022/11/14 04:31:31;;;;;;;;;;;3.00;99.90;;;;;;5102816;28;19992;-73
2022/11/14 04:34:18;;;;;;;;;;;3.10;99.90;;;;;;5095180;28;20296;-73
2022/11/14 04:37:03;;;;;;;;;;;3.00;99.90;;;;;;5094918;28;20040;-73
2022/11/14 04:39:48;;;;;;;;;;;3.10;99.90;;;;;;5101073;28;20194;-73
2022/11/14 04:42:33;;;;;;;;;;;2.80;99.90;;;;;;5103400;28;19935;-73
2022/11/14 04:45:18;;;;;;;;;;;3.00;99.90;;;;;;5104532;28;20253;-73
2022/11/14 04:48:03;;;;;;;;;;;3.00;99.90;;;;;;5098240;28;19945;-73
2022/11/14 04:50:50;;;;;;;;;;;3.10;99.90;;;;;;5094129;28;19939;-73
2022/11/14 04:53:35;;;;;;;;;;;3.20;99.90;;;;;;5089387;28;20426;-73
2022/11/14 04:56:22;;;;;;;;;;;3.40;99.90;;;;;;5086138;28;19992;-73
2022/11/14 04:59:07;;;;;;;;;;;3.60;99.90;;;;;;5092051;28;20344;-73
2022/11/14 05:01:52;;;;;;;;;;;3.70;99.90;;;;;;5092469;28;20380;-73
2022/11/14 05:04:37;;;;;;;;;;;3.70;99.90;;;;;;5095041;28;19935;-73
2022/11/14 05:07:24;;;;;;;;;;;3.80;99.90;;;;;;5088228;28;19930;-73
2022/11/14 05:10:09;;;;;;;;;;;3.90;99.90;;;;;;5091392;28;19989;-73
2022/11/14 05:12:55;;;;;;;;;;;4.00;99.90;;;;;;5095536;28;20032;-72
2022/11/14 05:15:40;;;;;;;;;;;4.10;99.90;;;;;;5085222;28;19954;-72
2022/11/14 05:18:25;;;;;;;;;;;4.20;99.90;;;;;;5086656;28;19930;-73
2022/11/14 05:21:12;;;;;;;;;;;4.30;99.90;;;;;;5091772;28;19935;-73
2022/11/14 05:23:58;;;;;;;;;;;4.40;99.90;;;;;;5098198;28;20288;-73
2022/11/14 05:26:43;;;;;;;;;;;6.30;99.90;;;;;;5091686;28;20004;-73
2022/11/14 05:29:28;;;;;;;;;;;4.70;99.90;;;;;;5092516;28;19935;-73
2022/11/14 05:32:13;;;;;;;;;;;4.70;99.90;;;;;;5092035;28;20648;-72
2022/11/14 05:34:58;;;;;;;;;;;4.80;99.90;;;;;;5092287;28;19974;-72
2022/11/14 05:37:43;;;;;;;;;;;4.90;99.90;;;;;;5120529;28;20198;-72
2022/11/14 05:40:30;;;;;;;;;;;4.90;99.90;;;;;;5083476;28;20348;-72
2022/11/14 05:43:15;;;;;;;;;;;5.00;99.90;;;;;;5089993;28;20288;-72
2022/11/14 05:46:00;;;;;;;;;;;5.00;99.90;;;;;;5095827;28;19939;-72
2022/11/14 05:48:46;;;;;;;;;;;5.00;99.90;;;;;;5088130;28;20308;-72
2022/11/14 05:51:31;;;;;;;;;;;5.10;99.90;;;;;;5087999;28;19954;-72
2022/11/14 05:54:16;;;;;;;;;;;5.10;99.90;;;;;;5088104;28;19974;-72
2022/11/14 05:57:02;;;;;;;;;;;5.10;99.90;;;;;;5086746;28;19993;-72
2022/11/14 05:59:47;;;;;;;;;;;5.10;99.90;;;;;;5096214;28;20402;-72
2022/11/14 06:02:33;;;;;;;;;;;5.00;99.90;;;;;;5087427;28;20028;-72
2022/11/14 06:05:18;;;;;;;;;;;5.00;99.90;;;;;;5599189;22;19938;-72
2022/11/14 06:08:03;;;;;;;;;;;5.00;99.90;;;;;;5084340;28;20410;-73
2022/11/14 06:10:48;;;;;;;;;;;5.10;99.90;;;;;;5076959;28;19939;-73
2022/11/14 06:13:35;;;;;;;;;;;5.10;99.90;;;;;;5083572;28;19947;-73
2022/11/14 06:16:21;;;;;;;;;;;5.20;99.90;;;;;;5617254;22;19935;-73
2022/11/14 06:19:06;;;;;;;;;;;5.20;99.90;;;;;;5087676;28;19931;-73
2022/11/14 06:21:51;;;;;;;;;;;5.30;99.90;;;;;;5078501;28;20096;-73
2022/11/14 06:24:36;;;;;;;;;;;5.30;99.90;;;;;;5085346;28;19935;-73
2022/11/14 06:27:21;;;;;;;;;;;5.30;99.90;;;;;;5056873;28;20549;-73
2022/11/14 06:33:13;;;;;;;;;;;5.50;99.90;;;;;;5033236;28;19944;-75
2022/11/14 06:36:00;;;;;;;;;;;5.50;99.90;;;;;;5035651;28;19980;-75
2022/11/14 06:38:46;;;;;;;;;;;5.50;99.90;;;;;;5033022;28;19987;-77
2022/11/14 06:41:58;;;;;;;;;;;5.50;99.90;;;;;;5037102;28;20075;-78
2022/11/14 06:44:45;;;;;;;;;;;5.50;99.90;;;;;;5038342;28;20123;-76
2022/11/14 06:47:38;;;;;;;;;;;5.50;99.90;;;;;;5032377;28;20476;-80
2022/11/14 06:50:25;;;;;;;;;;;5.60;99.90;;;;;;5038615;28;19944;-79
2022/11/14 06:53:11;;;;;;;;;;;5.60;99.90;;;;;;5033000;28;19936;-79
2022/11/14 06:55:58;;;;;;;;;;;5.60;99.90;;;;;;5032653;28;19935;-78
2022/11/14 06:58:44;;;;;;;;;;;5.70;99.90;;;;;;5033408;28;19944;-78
2022/11/14 07:01:34;;;;;;;;;;;5.70;99.90;;;;;;5025652;28;19936;-77
2022/11/14 07:04:20;;;;;;;;;;;5.70;99.90;;;;;;5018058;28;20571;-77
2022/11/14 07:07:07;;;;;;;;;;;5.80;99.90;;;;;;5031653;28;20270;-80
2022/11/14 07:09:55;;;;;;;;;;;5.80;99.90;;;;;;5025949;28;19940;-78
2022/11/14 07:12:40;;;;;;;;;;;5.80;99.90;;;;;;5033720;28;19940;-79
2022/11/14 07:15:26;;;;;;;;;;;5.90;99.90;;;;;;5033495;28;20257;-79
2022/11/14 07:18:12;;;;;;;;;;;5.90;99.90;;;;;;5031341;28;19975;-79
2022/11/14 07:20:59;;;;;;;;;;;5.90;99.90;;;;;;5031900;28;20419;-79
2022/11/14 07:23:46;;;;;;;;;;;6.00;99.90;;;;;;5029898;28;19979;-79
2022/11/14 07:26:32;;;;;;;;;;;6.20;99.90;;;;;;5032199;28;19939;-79
2022/11/14 07:29:18;;;;;;;;;;;6.30;99.90;;;;;;5028989;28;20058;-78
2022/11/14 07:32:04;;;;;;;;;;;7.50;99.90;;;;;;5028158;28;19940;-78
2022/11/14 07:34:53;;;;;;;;;;;6.60;99.90;;;;;;5026909;28;19940;-78
2022/11/14 07:37:39;;;;;;;;;;;6.80;99.90;;;;;;5030052;28;19936;-77
2022/11/14 07:40:26;;;;;;;;;;;6.90;99.90;;;;;;5031680;28;19936;-80
2022/11/14 07:43:12;;;;;;;;;;;7.10;99.90;;;;;;5030634;28;19936;-80
2022/11/14 07:46:02;;;;;;;;;;;7.30;99.90;;;;;;5030380;28;19940;-81
2022/11/14 07:48:48;;;;;;;;;;;7.50;99.90;;;;;;5023457;28;19948;-77
2022/11/14 07:51:34;;;;;;;;;;;7.60;99.90;;;;;;5027704;28;19940;-77
2022/11/14 07:54:20;;;;;;;;;;;7.80;99.90;;;;;;5029698;28;20499;-77
2022/11/14 07:57:07;;;;;;;;;;;8.00;99.90;;;;;;5026692;28;20070;-78
2022/11/14 07:59:56;;;;;;;;;;;8.20;99.90;;;;;;5027085;28;20042;-78
2022/11/14 08:02:41;;;;;;;;;;;8.40;99.90;;;;;;5024893;28;19951;-77
2022/11/14 08:05:27;;;;;;;;;;;8.60;99.90;;;;;;5023370;28;19935;-80
2022/11/14 08:08:12;;;;;;;;;;;8.80;99.90;;;;;;5026146;28;19933;-79
2022/11/14 08:10:58;;;;;;;;;;;9.00;99.90;;;;;;5028084;28;20423;-78
2022/11/14 08:13:44;;;;;;;;;;;9.20;99.90;;;;;;5028889;28;19948;-79
2022/11/14 08:16:30;;;;;;;;;;;9.30;99.90;;;;;;5029901;28;20075;-78
2022/11/14 08:19:19;;;;;;;;;;;9.40;99.90;;;;;;5033949;28;19952;-81
2022/11/14 08:22:04;;;;;;;;;;;9.60;99.90;;;;;;5035145;28;19940;-77
2022/11/14 08:24:50;;;;;;;;;;;9.50;99.90;;;;;;5029449;28;20035;-77
2022/11/14 08:27:37;;;;;;;;;;;9.60;99.90;;;;;;5028804;28;20269;-77
2022/11/14 08:30:23;;;;;;;;;;;9.60;99.90;;;;;;5029538;28;19935;-79
2022/11/14 08:33:09;;;;;;;;;;;9.60;99.90;;;;;;5015722;28;19939;-75
2022/11/14 08:35:55;;;;;;;;;;;9.50;99.90;;;;;;5015184;28;19965;-78
2022/11/14 08:38:41;;;;;;;;;;;9.40;99.90;;;;;;5025669;28;20021;-80
2022/11/14 08:41:30;;;;;;;;;;;9.40;99.90;;;;;;5026350;28;20367;-82
2022/11/14 08:44:17;;;;;;;;;;;9.30;99.90;;;;;;5031105;28;20066;-79
2022/11/14 08:47:04;;;;;;;;;;;9.20;99.90;;;;;;5032880;28;19935;-79
2022/11/14 08:49:49;;;;;;;;;;;9.10;99.90;;;;;;5035927;28;20063;-74
2022/11/14 08:52:35;;;;;;;;;;;9.10;99.90;;;;;;5027761;28;19948;-80
2022/11/14 08:55:21;;;;;;;;;;;9.20;99.90;;;;;;5030072;28;19936;-79
2022/11/14 08:58:07;;;;;;;;;;;9.20;99.90;;;;;;5025828;28;19959;-75
2022/11/14 09:00:53;;;;;;;;;;;9.30;99.90;;;;;;5024804;28;19937;-76
2022/11/14 09:03:40;;;;;;;;;;;9.30;99.90;;;;;;5032665;28;19940;-77
2022/11/14 09:06:26;;;;;;;;;;;9.40;99.90;;;;;;5030152;28;20001;-78
2022/11/14 09:09:11;;;;;;;;;;;9.60;99.90;;;;;;5031583;28;19919;-79
2022/11/14 09:11:57;;;;;;;;;;;9.60;99.90;;;;;;5028260;28;20004;-79
2022/11/14 09:14:43;;;;;;;;;;;9.60;99.90;;;;;;5035332;28;20419;-78
2022/11/14 09:17:29;;;;;;;;;;;9.80;99.90;;;;;;5024950;28;19936;-77
2022/11/14 09:20:17;;;;;;;;;;;9.90;99.90;;;;;;5026565;28;20542;-79
2022/11/14 09:23:03;;;;;;;;;;;9.90;99.90;;;;;;5037309;28;20407;-79
2022/11/14 09:25:49;;;;;;;;;;;10.00;99.90;;;;;;5028558;28;19979;-77
2022/11/14 09:28:35;;;;;;;;;;;10.00;99.90;;;;;;5031296;28;19940;-74
2022/11/14 09:31:20;;;;;;;;;;;9.90;99.90;;;;;;5031656;28;20060;-76
2022/11/14 09:34:05;;;;;;;;;;;9.80;99.90;;;;;;5033147;28;20084;-79
2022/11/14 09:36:52;;;;;;;;;;;9.80;99.90;;;;;;5017132;28;19933;-77
2022/11/14 09:39:39;;;;;;;;;;;9.80;99.90;;;;;;5024397;28;20011;-77
2022/11/14 09:42:30;;;;;;;;;;;9.70;99.90;;;;;;5025337;28;20051;-78
2022/11/14 09:45:16;;;;;;;;;;;9.70;99.90;;;;;;5027540;28;19940;-78
2022/11/14 09:48:04;;;;;;;;;;;9.70;99.90;;;;;;5030991;28;19935;-79
2022/11/14 09:50:52;;;;;;;;;;;9.80;99.90;;;;;;5013746;28;20099;-78
2022/11/14 09:53:42;;;;;;;;;;;9.80;99.90;;;;;;5024234;28;20201;-78
2022/11/14 09:56:29;;;;;;;;;;;9.80;99.90;;;;;;5015602;28;19937;-79
2022/11/14 09:59:14;;;;;;;;;;;9.80;99.90;;;;;;5024172;28;19952;-80
2022/11/14 10:02:05;;;;;;;;;;;9.90;99.90;;;;;;5031063;28;20517;-79
2022/11/14 10:04:58;;;;;;;;;;;9.80;99.90;;;;;;5030003;28;19936;-78
2022/11/14 10:07:52;;;;;;;;;;;9.80;99.90;;;;;;5027077;28;19944;-78
2022/11/14 10:10:47;;;;;;;;;;;9.90;99.90;;;;;;5021903;28;19979;-79
2022/11/14 10:13:42;;;;;;;;;;;9.90;99.90;;;;;;5030194;28;19940;-79
2022/11/14 10:16:33;;;;;;;;;;;9.90;99.90;;;;;;5029805;28;20008;-79
2022/11/14 10:19:23;;;;;;;;;;;9.80;99.90;;;;;;5031700;28;19960;-79
2022/11/14 10:22:16;;;;;;;;;;;9.80;99.90;;;;;;5033813;28;19935;-79
2022/11/14 10:25:05;;;;;;;;;;;9.70;99.90;;;;;;5032714;28;20023;-79
2022/11/14 10:28:00;;;;;;;;;;;9.60;99.90;;;;;;5034528;28;19991;-79
2022/11/14 10:30:51;;;;;;;;;;;9.60;99.90;;;;;;5023609;28;20407;-78
2022/11/14 10:33:42;;;;;;;;;;;9.70;99.90;;;;;;5034080;28;20311;-78
2022/11/14 10:36:34;;;;;;;;;;;9.70;99.90;;;;;;5027063;28;20015;-79
2022/11/14 10:39:21;;;;;;;;;;;9.80;99.90;;;;;;5034074;28;19973;-79
2022/11/14 10:42:11;;;;;;;;;;;9.90;99.90;;;;;;5027483;28;19983;-80
2022/11/14 10:45:02;;;;;;;;;;;9.80;99.90;;;;;;5028932;28;19939;-79
2022/11/14 10:47:49;;;;;;;;;;;9.90;99.90;;;;;;5031766;28;20014;-79
2022/11/14 10:50:40;;;;;;;;;;;9.90;99.90;;;;;;5030366;28;19944;-79
2022/11/14 10:53:29;;;;;;;;;;;9.90;99.90;;;;;;5031071;28;20006;-79
2022/11/14 10:56:14;;;;;;;;;;;10.00;99.90;;;;;;5030668;28;20500;-79
2022/11/14 10:59:00;;;;;;;;;;;10.10;99.90;;;;;;5030210;28;20030;-79
2022/11/14 11:01:53;;;;;;;;;;;10.30;99.90;;;;;;5030591;28;19940;-78
2022/11/14 11:04:41;;;;;;;;;;;10.40;99.90;;;;;;5031048;28;19952;-79
2022/11/14 11:13:48;;;;;;;;;;;10.70;99.90;;;;;;5027802;28;20422;-79
2022/11/14 11:16:34;;;;;;;;;;;10.90;99.90;;;;;;5027588;28;19984;-75
2022/11/14 11:19:26;;;;;;;;;;;11.00;99.90;;;;;;5035037;28;19937;-79
2022/11/14 11:22:29;;;;;;;;;;;11.10;99.90;;;;;;5032508;28;20015;-76
2022/11/14 11:25:25;;;;;;;;;;;11.20;99.90;;;;;;5035193;28;19955;-77
2022/11/14 11:28:12;;;;;;;;;;;11.10;99.90;;;;;;5033038;28;19936;-78
2022/11/14 11:30:59;;;;;;;;;;;11.20;99.90;;;;;;5034944;28;19948;-77
2022/11/14 11:33:45;;;;;;;;;;;11.30;99.90;;;;;;5025349;28;20011;-79
2022/11/14 11:36:36;;;;;;;;;;;11.30;99.90;;;;;;5036048;28;20006;-78
2022/11/14 11:39:23;;;;;;;;;;;11.30;99.90;;;;;;5035301;28;19940;-78
2022/11/14 11:42:12;;;;;;;;;;;11.50;99.90;;;;;;5027694;28;19987;-79
2022/11/14 11:44:59;;;;;;;;;;;11.60;99.90;;;;;;5031117;28;19955;-79
2022/11/14 11:47:48;;;;;;;;;;;11.70;99.90;;;;;;5029481;28;20146;-77
2022/11/14 11:50:33;;;;;;;;;;;11.70;99.90;;;;;;5025751;28;21499;-81
2022/11/14 11:53:22;;;;;;;;;;;11.70;99.90;;;;;;5023278;28;19940;-79
2022/11/14 11:56:10;;;;;;;;;;;11.70;99.90;;;;;;5029596;28;19936;-78
2022/11/14 11:58:58;;;;;;;;;;;11.60;99.90;;;;;;5031287;28;19979;-76
2022/11/14 12:01:45;;;;;;;;;;;11.50;99.90;;;;;;5030204;28;19932;-76
2022/11/14 12:04:30;;;;;;;;;;;11.50;99.90;;;;;;5030327;28;19940;-79
2022/11/14 12:07:19;;;;;;;;;;;11.60;99.90;;;;;;5028994;28;19941;-76
2022/11/14 12:10:13;;;;;;;;;;;11.70;99.90;;;;;;5029373;28;19944;-75
2022/11/14 12:13:14;;;;;;;;;;;11.70;99.90;;;;;;5030859;28;19939;-78
2022/11/14 12:16:15;;;;;;;;;;;11.70;99.90;;;;;;5029050;28;20006;-78
2022/11/14 12:19:09;;;;;;;;;;;11.80;99.90;;;;;;5034239;28;20674;-79
2022/11/14 12:22:02;;;;;;;;;;;11.90;99.90;;;;;;5016137;28;19948;-79
2022/11/14 12:24:58;;;;;;;;;;;11.90;99.90;;;;;;5021306;28;19980;-78
2022/11/14 12:27:54;;;;;;;;;;;11.90;99.90;;;;;;5033455;28;19932;-77
2022/11/14 12:30:40;;;;;;;;;;;11.80;99.90;;;;;;5032663;28;20395;-79
2022/11/14 12:33:27;;;;;;;;;;;11.70;99.90;;;;;;5031455;28;19932;-80
2022/11/14 12:36:13;;;;;;;;;;;11.70;99.90;;;;;;5030833;28;19936;-79
2022/11/14 12:38:59;;;;;;;;;;;11.80;99.90;;;;;;5029748;28;19975;-77
2022/11/14 12:41:45;;;;;;;;;;;11.80;99.90;;;;;;5031601;28;19956;-78
2022/11/14 12:44:36;;;;;;;;;;;11.90;99.90;;;;;;5033382;28;20020;-76
2022/11/14 12:47:23;;;;;;;;;;;11.90;99.90;;;;;;5030710;28;19968;-78
2022/11/14 12:50:35;;;;;;;;;;;12.00;99.90;;;;;;5030686;28;19974;-78
2022/11/14 12:53:41;;;;;;;;;;;12.00;99.90;;;;;;5025004;28;19952;-78
2022/11/14 12:56:42;;;;;;;;;;;11.90;99.90;;;;;;5035942;28;19981;-78
2022/11/14 12:59:39;;;;;;;;;;;11.80;99.90;;;;;;5032929;28;19952;-78
2022/11/14 13:02:37;;;;;;;;;;;11.70;99.90;;;;;;5032312;28;19952;-79
2022/11/14 13:05:45;;;;;;;;;;;11.70;99.90;;;;;;5027325;28;19932;-79
2022/11/14 13:08:42;;;;;;;;;;;11.70;99.90;;;;;;5021221;28;19979;-77
2022/11/14 13:24:20;;;;;;;;;;;11.40;99.90;;;;;;5034303;28;19936;-79
2022/11/14 13:30:52;;;;;;;;;;;11.40;99.90;;;;;;5029292;28;19948;-78
2022/11/14 13:33:44;;;;;;;;;;;11.30;99.90;;;;;;5027412;28;19991;-77
2022/11/14 13:36:34;;;;;;;;;;;11.20;99.90;;;;;;5013039;28;20007;-78
2022/11/14 13:39:23;;;;;;;;;;;11.10;99.90;;;;;;5024388;28;19936;-79
2022/11/14 13:42:18;;;;;;;;;;;11.00;99.90;;;;;;5019299;28;19936;-78
2022/11/14 13:45:17;;;;;;;;;;;11.00;99.90;;;;;;5018539;28;20365;-78
2022/11/14 13:48:19;;;;;;;;;;;11.00;99.90;;;;;;5013080;28;19940;-77
2022/11/14 13:51:07;;;;;;;;;;;11.00;99.90;;;;;;5022457;28;20040;-78
2022/11/14 13:53:53;;;;;;;;;;;11.00;99.90;;;;;;5027065;28;20423;-78
2022/11/14 13:56:43;;;;;;;;;;;10.90;99.90;;;;;;5030214;28;19981;-78
2022/11/14 13:59:45;;;;;;;;;;;10.90;99.90;;;;;;5026127;28;19956;-78
2022/11/14 14:02:51;;;;;;;;;;;10.90;99.90;;;;;;5022640;28;19940;-78
2022/11/14 14:05:46;;;;;;;;;;;10.90;99.90;;;;;;5020933;28;19941;-78
2022/11/14 14:08:42;;;;;;;;;;;10.80;99.90;;;;;;5027981;28;19988;-78
2022/11/14 14:11:35;;;;;;;;;;;10.80;99.90;;;;;;5033786;28;20037;-77
2022/11/14 14:14:31;;;;;;;;;;;12.10;99.90;;;;;;5028264;28;19936;-79
2022/11/14 14:17:20;;;;;;;;;;;10.80;99.90;;;;;;5033236;28;19959;-79
2022/11/14 14:20:16;;;;;;;;;;;10.80;99.90;;;;;;5026604;28;19947;-79
2022/11/14 14:23:07;;;;;;;;;;;10.80;99.90;;;;;;5030379;28;20527;-78
2022/11/14 14:28:43;;;;;;;;;;;10.90;99.90;;;;;;5101951;22;19928;-79
2022/11/14 14:31:33;;;;;;;;;;;10.80;99.90;;;;;;5088037;28;19935;-79
2022/11/14 14:34:20;;;;;;;;;;;10.80;99.90;;;;;;5092978;28;19979;-79
2022/11/14 14:37:15;;;;;;;;;;;10.90;99.90;;;;;;5086080;28;20035;-79
2022/11/14 14:40:02;;;;;;;;;;;10.90;99.90;;;;;;5088539;28;19939;-79
2022/11/14 14:42:49;;;;;;;;;;;10.90;99.90;;;;;;5090417;28;19935;-79
2022/11/14 14:45:45;;;;;;;;;;;10.80;99.90;;;;;;5092464;28;20001;-79
2022/11/14 14:48:33;;;;;;;;;;;10.90;99.90;;;;;;5094709;28;19982;-79
2022/11/14 14:51:28;;;;;;;;;;;10.90;99.90;;;;;;5084213;28;20123;-79
2022/11/14 14:54:23;;;;;;;;;;;10.80;99.90;;;;;;5086000;28;19939;-79
2022/11/14 14:57:39;;;;;;;;;;;10.80;99.90;;;;;;5091488;28;19931;-80
2022/11/14 15:00:28;;;;;;;;;;;10.80;99.90;;;;;;5089518;28;19965;-80
2022/11/14 15:03:15;;;;;;;;;;;10.70;99.90;;;;;;5098457;28;20023;-78
2022/11/14 15:06:02;;;;;;;;;;;10.70;99.90;;;;;;5093105;28;20016;-78
2022/11/14 15:08:49;;;;;;;;;;;10.70;99.90;;;;;;5085077;28;20061;-79
2022/11/14 15:11:36;;;;;;;;;;;10.70;99.90;;;;;;5086872;28;19937;-78
2022/11/14 15:14:23;;;;;;;;;;;10.60;99.90;;;;;;5077417;28;20025;-79
2022/11/14 15:17:10;;;;;;;;;;;10.60;99.90;;;;;;5082494;28;19939;-77
2022/11/14 15:19:57;;;;;;;;;;;10.60;99.90;;;;;;5087738;28;20044;-78
2022/11/14 15:22:42;;;;;;;;;;;10.60;99.90;;;;;;5078906;28;20021;-77
2022/11/14 15:25:28;;;;;;;;;;;10.60;99.90;;;;;;5089871;28;19931;-78
2022/11/14 15:28:16;;;;;;;;;;;10.60;99.90;;;;;;5083747;28;19988;-78
2022/11/14 15:31:02;;;;;;;;;;;10.50;99.90;;;;;;5084957;28;19956;-77
2022/11/14 15:34:00;;;;;;;;;;;10.50;99.90;;;;;;5081457;28;19950;-77
2022/11/14 15:37:01;;;;;;;;;;;10.50;99.90;;;;;;5077414;28;19934;-77
2022/11/14 15:39:48;;;;;;;;;;;10.50;99.90;;;;;;5081998;28;19931;-78
2022/11/14 15:42:34;;;;;;;;;;;10.50;99.90;;;;;;5081083;28;19939;-78
2022/11/14 15:45:23;;;;;;;;;;;10.50;99.90;;;;;;5085123;28;19985;-79
2022/11/14 15:48:12;;;;;;;;;;;10.50;99.90;;;;;;5083208;28;19931;-78
2022/11/14 15:50:58;;;;;;;;;;;10.50;99.90;;;;;;5081162;28;19934;-77
2022/11/14 15:53:45;;;;;;;;;;;10.40;99.90;;;;;;5077708;28;19992;-78
2022/11/14 15:56:32;;;;;;;;;;;10.40;99.90;;;;;;5081875;28;19939;-78
2022/11/14 15:59:18;;;;;;;;;;;10.40;99.90;;;;;;5080989;28;19932;-78
2022/11/14 16:02:04;;;;;;;;;;;10.40;99.90;;;;;;5082638;28;20134;-79
2022/11/14 16:04:50;;;;;;;;;;;10.40;99.90;;;;;;5080607;28;20081;-76
2022/11/14 16:07:36;;;;;;;;;;;10.40;99.90;;;;;;5074096;28;20073;-76
2022/11/14 16:10:23;;;;;;;;;;;10.30;99.90;;;;;;5079276;28;20215;-77
2022/11/14 16:13:10;;;;;;;;;;;10.30;99.90;;;;;;5072747;28;19935;-76
2022/11/14 16:15:55;;;;;;;;;;;10.30;99.90;;;;;;5071688;28;19934;-76
2022/11/14 16:18:41;;;;;;;;;;;10.30;99.90;;;;;;5080274;28;20414;-76
2022/11/14 16:21:27;;;;;;;;;;;10.30;99.90;;;;;;5079553;28;20389;-76
2022/11/14 16:24:20;;;;;;;;;;;8.80;99.90;;;;;;5073847;28;20050;-77
2022/11/14 16:27:05;;;;;;;;;;;10.20;99.90;;;;;;5077439;28;21012;-78
2022/11/14 16:29:52;;;;;;;;;;;10.20;99.90;;;;;;5076513;28;20029;-77
2022/11/14 16:32:38;;;;;;;;;;;10.20;99.90;;;;;;5075816;28;20103;-78
2022/11/14 16:35:24;;;;;;;;;;;10.20;99.90;;;;;;5086591;28;19935;-77
2022/11/14 16:38:17;;;;;;;;;;;10.10;99.90;;;;;;5083718;28;19938;-77
2022/11/14 16:41:19;;;;;;;;;;;10.20;99.90;;;;;;5076634;28;19940;-78
2022/11/14 16:44:07;;;;;;;;;;;10.10;99.90;;;;;;5069162;28;19936;-76
2022/11/14 16:47:13;;;;;;;;;;;10.10;99.90;;;;;;5084282;28;19950;-76
2022/11/14 16:50:02;;;;;;;;;;;10.10;99.90;;;;;;5081811;28;19985;-76
2022/11/14 16:52:50;;;;;;;;;;;10.00;99.90;;;;;;5081156;28;20073;-76
2022/11/14 16:55:37;;;;;;;;;;;10.00;99.90;;;;;;5080537;28;19935;-77